Time;durP1;ratioP1;P1;durP2;ratioP2;P2;SDS_P1;SDS_P2;PMS_P1;PMS_P2;Temp;Humidity;BMP_temperature;BMP_pressure;BME280_temperature;BME280_humidity;BME280_pressure;Samples;Min_cycle;Max_cycle;Signal;HPM_P1;HPM_P2
2023/05/23 00:01:00;;;;;;;36.95;9.77;;;;;;;19.04;58.57;100938.44;5013296;28;20108;-44
2023/05/23 00:03:27;;;;;;;29.15;8.90;;;;;;;18.95;58.57;100935.41;4995468;28;20026;-44
2023/05/23 00:05:55;;;;;;;32.15;8.48;;;;;;;18.78;59.61;100926.59;5013129;28;20033;-45
2023/05/23 00:08:21;;;;;;;34.00;9.45;;;;;;;18.72;59.70;100921.13;5012840;28;20033;-47
2023/05/23 00:10:47;;;;;;;32.15;8.90;;;;;;;18.69;60.79;100916.19;5013044;28;20034;-44
2023/05/23 00:13:14;;;;;;;33.38;9.70;;;;;;;18.54;61.49;100917.94;4994849;28;20057;-44
2023/05/23 00:15:41;;;;;;;37.65;10.70;;;;;;;18.32;61.73;100917.97;5012952;28;20441;-47
2023/05/23 00:18:09;;;;;;;37.17;10.13;;;;;;;18.00;63.14;100912.50;5012978;28;20028;-45
2023/05/23 00:20:40;;;;;;;29.48;9.60;;;;;;;17.77;64.58;100924.41;5012544;28;20085;-44
2023/05/23 00:23:12;;;;;;;35.13;8.98;;;;;;;18.02;64.10;100922.00;5012813;28;20112;-47
2023/05/23 00:25:39;;;;;;;32.28;9.82;;;;;;;17.96;64.27;100912.19;5000657;28;20057;-44
2023/05/23 00:28:06;;;;;;;37.55;10.52;;;;;;;17.84;64.37;100917.72;5000877;28;20092;-45
2023/05/23 00:30:33;;;;;;;37.78;10.85;;;;;;;17.87;64.81;100906.38;5002449;23;20108;-47
2023/05/23 00:33:00;;;;;;;37.25;9.35;;;;;;;18.01;64.67;100909.53;4994765;28;20109;-45
2023/05/23 00:35:27;;;;;;;38.75;10.25;;;;;;;18.05;64.12;100909.84;5010303;28;20038;-45
2023/05/23 00:37:54;;;;;;;31.80;10.18;;;;;;;18.04;63.66;100908.19;4995404;28;20026;-49
2023/05/23 00:40:21;;;;;;;36.33;9.93;;;;;;;17.79;65.60;100901.44;4993090;28;20081;-43
2023/05/23 00:42:48;;;;;;;35.25;9.70;;;;;;;17.91;65.56;100904.81;4997321;28;20037;-47
2023/05/23 00:45:15;;;;;;;25.77;8.48;;;;;;;17.67;64.63;100900.72;4997154;28;20197;-48
2023/05/23 00:47:42;;;;;;;35.50;9.55;;;;;;;17.72;65.19;100913.50;5005744;28;20096;-45
2023/05/23 00:50:15;;;;;;;36.80;9.20;;;;;;;17.52;64.99;100903.22;5012627;28;20022;-46
2023/05/23 00:52:43;;;;;;;30.17;9.23;;;;;;;17.64;64.88;100904.72;5011961;28;20430;-47
2023/05/23 00:55:10;;;;;;;35.08;10.38;;;;;;;17.47;66.00;100895.84;5012094;28;20026;-47
2023/05/23 00:57:43;;;;;;;41.80;10.27;;;;;;;17.46;66.03;100898.81;5012380;28;20497;-43
2023/05/23 01:00:11;;;;;;;47.17;10.80;;;;;;;17.32;66.68;100896.47;5005272;28;20046;-47
2023/05/23 01:02:45;;;;;;;40.22;9.75;;;;;;;17.02;67.29;100899.53;4992534;28;20387;-46
2023/05/23 01:05:16;;;;;;;33.23;9.80;;;;;;;17.22;66.78;100890.91;4993673;28;20537;-44
2023/05/23 01:07:46;;;;;;;37.08;9.93;;;;;;;17.23;66.44;100897.94;4992531;28;20260;-48
2023/05/23 01:10:18;;;;;;;34.63;9.82;;;;;;;16.85;67.48;100887.91;4992637;28;20092;-47
2023/05/23 01:12:53;;;;;;;33.83;9.65;;;;;;;16.88;68.25;100888.25;4992333;28;20429;-46
2023/05/23 01:15:22;;;;;;;41.05;10.23;;;;;;;16.83;67.92;100881.94;5007141;28;20607;-45
2023/05/23 01:18:07;;;;;;;39.17;10.23;;;;;;;16.80;68.30;100896.75;5030079;28;20042;-45
2023/05/23 01:20:51;;;;;;;40.20;10.23;;;;;;;16.98;68.02;100890.25;5012438;28;20592;-46
2023/05/23 01:23:36;;;;;;;42.03;10.07;;;;;;;16.66;68.79;100894.56;5009352;28;20030;-44
2023/05/23 01:26:25;;;;;;;36.63;10.67;;;;;;;16.89;68.96;100891.75;5005443;28;20105;-48
2023/05/23 01:28:57;;;;;;;36.97;9.73;;;;;;;16.97;68.11;100888.63;4992352;28;20150;-46
2023/05/23 01:31:26;;;;;;;42.78;11.23;;;;;;;16.79;67.75;100887.00;4991947;28;20047;-47
2023/05/23 01:33:53;;;;;;;40.75;9.60;;;;;;;16.77;67.51;100894.56;4993459;28;20031;-47
2023/05/23 01:36:20;;;;;;;43.42;9.90;;;;;;;16.70;67.71;100891.13;5004546;28;20026;-45
2023/05/23 01:38:46;;;;;;;49.20;10.20;;;;;;;16.57;67.95;100892.28;5009573;28;20093;-45
2023/05/23 01:41:12;;;;;;;38.78;9.95;;;;;;;16.49;67.96;100897.25;5006014;28;20026;-47
2023/05/23 01:43:38;;;;;;;43.70;9.63;;;;;;;16.39;68.01;100892.53;5013191;28;20040;-45
2023/05/23 01:46:06;;;;;;;43.55;10.30;;;;;;;16.18;68.78;100887.81;5013579;28;20105;-45
2023/05/23 01:48:33;;;;;;;44.03;11.25;;;;;;;16.15;68.63;100891.78;5006439;28;20026;-45
2023/05/23 01:51:01;;;;;;;40.05;10.77;;;;;;;16.19;68.39;100895.66;5015697;28;20030;-45
2023/05/23 01:53:29;;;;;;;44.28;10.10;;;;;;;16.19;68.46;100889.44;4998677;28;20029;-45
2023/05/23 01:55:56;;;;;;;35.65;10.10;;;;;;;16.18;68.19;100885.91;5005373;28;20030;-45
2023/05/23 01:58:22;;;;;;;42.28;10.68;;;;;;;16.35;67.97;100891.34;5010506;28;20025;-46
2023/05/23 02:00:49;;;;;;;64.32;11.60;;;;;;;16.50;67.46;100890.81;5002973;28;20061;-47
2023/05/23 02:03:15;;;;;;;35.13;10.30;;;;;;;16.46;66.83;100884.25;4995585;28;20038;-45
2023/05/23 02:05:42;;;;;;;46.13;11.57;;;;;;;16.61;66.56;100898.03;5015205;28;20018;-46
2023/05/23 02:08:09;;;;;;;39.95;11.00;;;;;;;16.72;65.06;100893.66;4995997;28;20038;-43
2023/05/23 02:10:35;;;;;;;45.72;10.85;;;;;;;16.84;64.61;100895.19;4998545;28;20770;-45
2023/05/23 02:13:01;;;;;;;41.58;10.30;;;;;;;16.86;64.54;100890.34;5005559;28;20030;-43
2023/05/23 02:15:27;;;;;;;42.85;10.63;;;;;;;16.64;64.61;100886.72;4995434;28;20022;-43
2023/05/23 02:17:53;;;;;;;33.05;10.07;;;;;;;16.47;64.59;100905.63;4996814;28;20117;-45
2023/05/23 02:20:20;;;;;;;51.97;11.50;;;;;;;16.46;64.24;100903.97;5010456;28;20532;-45
2023/05/23 02:22:46;;;;;;;43.47;11.32;;;;;;;16.21;65.19;100911.59;4995582;28;20025;-46
2023/05/23 02:25:12;;;;;;;49.03;11.80;;;;;;;16.10;65.74;100914.13;5001890;28;20025;-46
2023/05/23 02:27:38;;;;;;;43.67;10.05;;;;;;;15.77;66.78;100900.50;5014971;28;20076;-45
2023/05/23 02:30:05;;;;;;;42.15;11.20;;;;;;;15.49;67.98;100898.53;4998202;28;20118;-45
2023/05/23 02:32:31;;;;;;;46.20;11.98;;;;;;;15.25;69.00;100906.63;4995512;28;20056;-47
2023/05/23 02:34:58;;;;;;;42.30;10.82;;;;;;;15.00;70.28;100900.69;4995602;28;20449;-43
2023/05/23 02:37:24;;;;;;;58.13;12.00;;;;;;;14.98;70.15;100903.59;4984863;28;20387;-44
2023/05/23 02:39:50;;;;;;;43.33;11.50;;;;;;;14.86;70.60;100900.06;4993902;28;20031;-45
2023/05/23 02:42:17;;;;;;;40.65;11.00;;;;;;;14.86;70.74;100896.56;4995331;28;20026;-43
2023/05/23 02:44:43;;;;;;;39.97;11.30;;;;;;;14.85;70.81;100900.31;4995646;28;20026;-47
2023/05/23 02:47:09;;;;;;;44.42;12.75;;;;;;;14.74;71.60;100904.63;4998596;28;20590;-48
2023/05/23 02:49:36;;;;;;;52.08;14.02;;;;;;;14.72;71.69;100906.75;5011984;28;20041;-46
2023/05/23 02:52:02;;;;;;;51.55;12.25;;;;;;;14.74;71.73;100913.53;5009323;28;20032;-44
2023/05/23 02:54:28;;;;;;;47.47;13.10;;;;;;;14.44;73.54;100907.34;5008860;28;20474;-48
2023/05/23 02:56:55;;;;;;;47.65;12.63;;;;;;;14.37;74.14;100910.09;4995024;28;20471;-43
2023/05/23 02:59:22;;;;;;;54.83;11.35;;;;;;;14.29;73.74;100904.25;4994888;28;20542;-46
2023/05/23 03:01:48;;;;;;;52.83;12.90;;;;;;;14.18;74.44;100919.31;4995129;28;20028;-45
2023/05/23 03:04:15;;;;;;;50.03;12.27;;;;;;;14.13;74.30;100908.41;5006202;28;20081;-45
2023/05/23 03:06:43;;;;;;;47.47;13.40;;;;;;;13.97;74.55;100901.75;5008942;28;20033;-45
2023/05/23 03:09:10;;;;;;;51.25;12.52;;;;;;;13.99;74.33;100905.03;5034098;28;20030;-43
2023/05/23 03:11:36;;;;;;;52.05;12.35;;;;;;;13.89;74.77;100897.53;5034168;28;20072;-45
2023/05/23 03:14:03;;;;;;;62.28;14.75;;;;;;;13.68;75.65;100896.13;5034107;28;20041;-45
2023/05/23 03:16:29;;;;;;;54.60;13.95;;;;;;;13.76;75.66;100903.06;5029619;28;20519;-45
2023/05/23 03:18:55;;;;;;;57.00;12.30;;;;;;;13.67;76.16;100912.50;5000326;28;20030;-45
2023/05/23 03:21:21;;;;;;;51.88;13.23;;;;;;;13.76;75.91;100911.13;4995316;28;20069;-47
2023/05/23 03:23:48;;;;;;;56.83;13.80;;;;;;;13.81;75.50;100913.13;5008678;28;20029;-44
2023/05/23 03:26:14;;;;;;;65.10;14.13;;;;;;;13.71;75.74;100908.28;5022182;28;20029;-45
2023/05/23 03:28:40;;;;;;;63.15;14.55;;;;;;;13.48;76.71;100904.41;5013997;28;20030;-46
2023/05/23 03:31:07;;;;;;;52.42;14.70;;;;;;;13.56;76.30;100915.94;5016684;28;20042;-44
2023/05/23 03:33:33;;;;;;;50.63;13.95;;;;;;;13.45;76.68;100917.47;5013602;28;20029;-45
2023/05/23 03:35:59;;;;;;;57.92;16.15;;;;;;;13.30;77.50;100925.91;5020636;28;20474;-47
2023/05/23 03:38:26;;;;;;;59.85;15.15;;;;;;;13.30;77.44;100911.63;5011677;28;20129;-44
2023/05/23 03:40:53;;;;;;;62.38;15.65;;;;;;;13.07;78.51;100901.50;5013680;28;20065;-46
2023/05/23 03:43:19;;;;;;;66.70;15.55;;;;;;;13.30;77.87;100907.06;5013734;28;20386;-44
2023/05/23 03:45:46;;;;;;;59.75;15.75;;;;;;;13.22;77.65;100907.38;5013793;28;20034;-44
2023/05/23 03:48:12;;;;;;;56.97;14.77;;;;;;;13.19;77.89;100900.53;5013630;28;20025;-45
2023/05/23 03:50:39;;;;;;;49.30;13.43;;;;;;;13.19;77.84;100899.72;5002353;28;20581;-43
2023/05/23 03:53:06;;;;;;;66.93;14.70;;;;;;;13.14;78.22;100902.25;4994115;28;20109;-47
2023/05/23 03:55:32;;;;;;;56.40;14.35;;;;;;;13.13;77.96;100898.75;4994163;28;20102;-43
2023/05/23 03:57:58;;;;;;;64.82;16.02;;;;;;;13.11;77.93;100900.00;5012978;28;20478;-43
2023/05/23 04:00:25;;;;;;;59.22;15.00;;;;;;;12.98;79.01;100892.06;4995227;28;20113;-45
2023/05/23 04:02:51;;;;;;;68.30;16.48;;;;;;;12.94;79.10;100908.63;5012955;28;20058;-46
2023/05/23 04:05:17;;;;;;;60.67;14.98;;;;;;;12.99;78.49;100896.38;5012333;28;20153;-44
2023/05/23 04:07:44;;;;;;;54.45;13.98;;;;;;;12.93;79.06;100895.41;5011821;28;20030;-46
2023/05/23 04:10:11;;;;;;;64.10;16.10;;;;;;;12.71;80.32;100908.38;4994257;28;20446;-44
2023/05/23 04:12:40;;;;;;;66.40;15.60;;;;;;;12.69;80.14;100910.47;5009609;28;20056;-45
2023/05/23 04:15:07;;;;;;;59.03;16.55;;;;;;;12.68;80.14;100911.53;5032604;28;20163;-47
2023/05/23 04:17:34;;;;;;;55.33;14.90;;;;;;;12.87;79.25;100912.41;5032561;28;20495;-47
2023/05/23 04:20:00;;;;;;;66.47;14.38;;;;;;;12.77;79.64;100910.22;5032484;28;20025;-44
2023/05/23 04:22:26;;;;;;;62.35;14.90;;;;;;;12.85;79.06;100909.13;5032055;28;20422;-44
2023/05/23 04:24:53;;;;;;;72.05;16.88;;;;;;;12.78;79.53;100909.19;5032333;28;20455;-45
2023/05/23 04:27:21;;;;;;;62.67;15.98;;;;;;;12.83;79.61;100903.97;5027120;28;20034;-47
2023/05/23 04:29:47;;;;;;;59.08;15.20;;;;;;;12.71;79.83;100908.38;4993446;28;20547;-45
2023/05/23 04:32:15;;;;;;;64.53;15.20;;;;;;;12.69;80.10;100907.78;4992693;28;20157;-45
2023/05/23 04:34:43;;;;;;;57.50;14.90;;;;;;;12.76;79.36;100899.69;4993025;28;20063;-45
2023/05/23 04:37:10;;;;;;;58.78;15.45;;;;;;;12.68;80.10;100901.59;4993120;28;20117;-46
2023/05/23 04:39:37;;;;;;;59.95;16.30;;;;;;;12.75;79.43;100914.16;4992732;28;20042;-48
2023/05/23 04:42:03;;;;;;;73.15;16.48;;;;;;;12.76;79.35;100916.63;4992802;28;20038;-45
2023/05/23 04:44:30;;;;;;;69.35;16.70;;;;;;;12.70;79.63;100920.19;4993100;28;20035;-45
2023/05/23 04:46:56;;;;;;;65.88;16.65;;;;;;;12.68;79.68;100919.59;4991769;28;20109;-44
2023/05/23 04:49:23;;;;;;;56.35;14.60;;;;;;;12.67;79.78;100932.19;4992646;28;20061;-46
2023/05/23 04:51:49;;;;;;;70.25;15.73;;;;;;;12.75;79.83;100933.78;4992804;28;20061;-46
2023/05/23 04:54:16;;;;;;;81.28;16.45;;;;;;;12.64;80.76;100927.25;4992028;28;20395;-47
2023/05/23 04:56:42;;;;;;;60.67;15.43;;;;;;;12.52;80.99;100922.78;4992496;28;20022;-44
2023/05/23 04:59:10;;;;;;;57.53;15.80;;;;;;;12.62;80.54;100920.44;4992698;28;20080;-45
2023/05/23 05:01:39;;;;;;;66.88;15.88;;;;;;;12.68;80.24;100925.78;4992649;28;20037;-45
2023/05/23 05:04:06;;;;;;;77.32;17.33;;;;;;;12.65;80.56;100926.19;4993998;28;20030;-44
2023/05/23 05:06:32;;;;;;;69.70;17.17;;;;;;;12.62;80.74;100925.81;4992383;28;20107;-44
2023/05/23 05:08:58;;;;;;;66.20;17.05;;;;;;;12.68;80.17;100924.94;4992485;28;20166;-46
2023/05/23 05:11:26;;;;;;;62.10;15.20;;;;;;;12.73;79.89;100927.81;5008442;28;20073;-45
2023/05/23 05:13:52;;;;;;;62.03;16.77;;;;;;;12.69;80.26;100929.28;5011658;28;20037;-45
2023/05/23 05:16:18;;;;;;;69.07;15.98;;;;;;;12.51;81.03;100921.97;5011522;28;20044;-47
2023/05/23 05:18:45;;;;;;;71.15;17.92;;;;;;;12.48;80.72;100930.44;5012209;28;20353;-44
2023/05/23 05:21:11;;;;;;;71.90;17.50;;;;;;;12.41;81.08;100930.50;5011751;28;20025;-47
2023/05/23 05:23:37;;;;;;;61.47;16.38;;;;;;;12.43;81.12;100931.09;5011628;28;20554;-49
2023/05/23 05:26:04;;;;;;;63.85;16.90;;;;;;;12.40;81.31;100939.59;4994664;28;20034;-47
2023/05/23 05:28:30;;;;;;;66.88;16.98;;;;;;;12.34;81.67;100935.09;4992470;28;20121;-44
2023/05/23 05:30:57;;;;;;;71.88;18.02;;;;;;;12.43;80.99;100930.25;4999274;28;20037;-47
2023/05/23 05:33:23;;;;;;;81.75;17.10;;;;;;;12.36;81.23;100938.38;4993770;28;20022;-45
2023/05/23 05:35:53;;;;;;;69.10;17.45;;;;;;;12.42;80.90;100936.69;4991600;28;20027;-44
2023/05/23 05:38:19;;;;;;;68.55;16.85;;;;;;;12.38;80.90;100935.44;4991907;28;20056;-45
2023/05/23 05:40:45;;;;;;;86.78;19.02;;;;;;;12.35;81.19;100935.91;4992149;28;20031;-44
2023/05/23 05:43:11;;;;;;;58.78;15.68;;;;;;;12.41;80.72;100935.84;4992191;28;20053;-44
2023/05/23 05:45:38;;;;;;;73.93;17.58;;;;;;;12.37;80.56;100929.25;4995320;28;20030;-44
2023/05/23 05:48:05;;;;;;;65.28;16.30;;;;;;;12.34;80.99;100923.53;4991921;28;20030;-43
2023/05/23 05:50:31;;;;;;;63.95;16.75;;;;;;;12.25;81.09;100919.44;4991504;28;20022;-45
2023/05/23 05:52:57;;;;;;;70.68;16.20;;;;;;;12.26;80.74;100929.94;4991754;28;20049;-43
2023/05/23 05:55:23;;;;;;;71.20;17.25;;;;;;;12.32;80.75;100941.69;4992053;28;20022;-46
2023/05/23 05:57:49;;;;;;;74.55;16.77;;;;;;;12.37;80.39;100934.63;4991921;28;20129;-43
2023/05/23 06:00:18;;;;;;;68.38;17.75;;;;;;;12.35;80.47;100938.59;4991676;28;20030;-45
2023/05/23 06:02:50;;;;;;;70.95;16.65;;;;;;;12.25;81.19;100936.34;4991221;28;20033;-45
2023/05/23 06:05:16;;;;;;;64.60;16.25;;;;;;;12.16;81.41;100934.97;4991761;28;20050;-44
2023/05/23 06:07:43;;;;;;;73.00;17.77;;;;;;;12.24;81.13;100928.53;4992115;28;20097;-44
2023/05/23 06:10:13;;;;;;;71.95;17.42;;;;;;;12.21;81.35;100929.78;4992028;28;20431;-45
2023/05/23 06:12:39;;;;;;;79.63;17.70;;;;;;;12.26;81.33;100939.88;4992826;28;20498;-44
2023/05/23 06:15:07;;;;;;;68.30;16.88;;;;;;;12.20;81.36;100930.00;5000579;28;20398;-44
2023/05/23 06:17:33;;;;;;;61.75;17.55;;;;;;;12.28;80.73;100933.25;4991444;28;20442;-45
2023/05/23 06:19:59;;;;;;;75.18;17.70;;;;;;;12.21;81.23;100924.41;4973861;28;20475;-44
2023/05/23 06:22:25;;;;;;;70.97;16.85;;;;;;;12.13;81.33;100930.84;4991525;28;20504;-47
2023/05/23 06:24:51;;;;;;;85.20;18.88;;;;;;;12.08;81.58;100929.84;4991784;28;20046;-44
2023/05/23 06:27:18;;;;;;;67.03;16.55;;;;;;;12.14;81.30;100915.56;4992816;28;20037;-46
2023/05/23 06:29:44;;;;;;;69.95;16.88;;;;;;;12.20;81.15;100925.44;4995255;28;20036;-48
2023/05/23 06:32:10;;;;;;;75.97;16.63;;;;;;;12.07;81.81;100930.88;4994666;28;20042;-46
2023/05/23 06:34:36;;;;;;;69.47;18.42;;;;;;;12.19;81.02;100936.41;4994798;28;20038;-44
2023/05/23 06:37:03;;;;;;;84.68;16.73;;;;;;;12.13;81.00;100921.97;4994678;28;20113;-44
2023/05/23 06:39:29;;;;;;;83.28;18.80;;;;;;;12.08;81.78;100927.16;4995234;28;20037;-45
2023/05/23 06:41:55;;;;;;;79.57;18.63;;;;;;;11.97;82.03;100925.16;4995106;28;20122;-43
2023/05/23 06:44:22;;;;;;;77.68;17.65;;;;;;;11.99;82.18;100928.44;4994853;28;20491;-44
2023/05/23 06:46:48;;;;;;;78.72;18.40;;;;;;;12.07;81.84;100928.19;4995279;28;20093;-46
2023/05/23 06:49:14;;;;;;;75.05;16.92;;;;;;;12.12;81.32;100926.53;4994905;28;20033;-44
2023/05/23 06:51:41;;;;;;;71.68;17.45;;;;;;;12.13;81.32;100916.63;4994899;28;20030;-47
2023/05/23 06:54:07;;;;;;;72.25;17.58;;;;;;;12.03;81.80;100919.75;4994158;28;20113;-46
2023/05/23 06:56:33;;;;;;;76.75;17.38;;;;;;;12.11;81.31;100907.97;4994709;28;20026;-44
2023/05/23 06:58:59;;;;;;;66.32;17.20;;;;;;;12.07;81.84;100912.94;4994837;28;20034;-46
2023/05/23 07:01:26;;;;;;;71.90;17.60;;;;;;;12.06;81.98;100908.59;4997718;28;20033;-46
2023/05/23 07:03:52;;;;;;;72.30;19.35;;;;;;;12.02;82.13;100918.09;4994159;28;20034;-45
2023/05/23 07:06:18;;;;;;;79.88;19.67;;;;;;;11.86;82.78;100915.91;4994122;28;20035;-46
2023/05/23 07:08:45;;;;;;;74.65;18.67;;;;;;;11.93;82.43;100915.88;4994751;28;20026;-44
2023/05/23 07:11:11;;;;;;;73.50;18.13;;;;;;;12.03;81.63;100911.69;4994654;28;20089;-44
2023/05/23 07:13:38;;;;;;;75.03;18.02;;;;;;;11.93;82.45;100918.56;4994274;28;20033;-43
2023/05/23 07:16:04;;;;;;;74.97;17.23;;;;;;;12.03;81.92;100918.94;5005095;28;20026;-46
2023/05/23 07:18:31;;;;;;;83.05;18.42;;;;;;;11.95;82.36;100916.50;4998710;28;20057;-44
2023/05/23 07:20:57;;;;;;;80.97;19.00;;;;;;;11.97;82.17;100917.91;4993844;28;20027;-44
2023/05/23 07:23:24;;;;;;;75.05;18.73;;;;;;;11.87;82.79;100917.53;4993730;28;20030;-44
2023/05/23 07:25:50;;;;;;;80.90;18.02;;;;;;;11.86;83.12;100915.91;4998700;28;20051;-44
2023/05/23 07:28:17;;;;;;;72.55;18.63;;;;;;;11.89;82.80;100921.69;4994031;28;20061;-45
2023/05/23 07:30:43;;;;;;;75.00;18.40;;;;;;;11.85;83.02;100917.75;4993820;28;20108;-46
2023/05/23 07:33:09;;;;;;;69.63;16.17;;;;;;;11.91;82.95;100907.22;4994043;28;20030;-46
2023/05/23 07:35:35;;;;;;;65.40;18.55;;;;;;;11.91;82.64;100901.88;4993981;28;20034;-47
2023/05/23 07:38:02;;;;;;;78.55;17.92;;;;;;;11.79;83.34;100905.19;4992292;28;20034;-44
2023/05/23 07:40:28;;;;;;;66.30;16.75;;;;;;;11.77;83.20;100907.25;4993680;28;20184;-45
2023/05/23 07:42:54;;;;;;;63.03;17.10;;;;;;;11.77;82.90;100901.03;4993597;28;20026;-45
2023/05/23 07:45:21;;;;;;;66.32;18.10;;;;;;;11.81;82.42;100907.63;4993257;28;20121;-45
2023/05/23 07:47:48;;;;;;;75.97;18.30;;;;;;;11.76;82.84;100904.78;4994217;28;20069;-46
2023/05/23 07:50:14;;;;;;;78.90;18.10;;;;;;;11.79;83.02;100899.81;4994009;28;20037;-46
2023/05/23 07:52:41;;;;;;;69.38;17.77;;;;;;;11.75;83.21;100903.13;4995053;28;21514;-45
2023/05/23 07:55:08;;;;;;;83.22;19.60;;;;;;;11.80;82.80;100906.81;4995529;28;20448;-46
2023/05/23 07:57:34;;;;;;;83.65;18.17;;;;;;;11.87;82.45;100896.91;4994970;28;20028;-48
2023/05/23 08:00:00;;;;;;;75.07;18.17;;;;;;;11.82;82.64;100898.59;4993566;28;20076;-44
2023/05/23 08:02:26;;;;;;;76.18;19.05;;;;;;;11.88;82.39;100903.09;4993318;28;20036;-45
2023/05/23 08:04:53;;;;;;;74.88;19.25;;;;;;;11.79;82.79;100909.72;4993349;28;20019;-47
2023/05/23 08:07:20;;;;;;;74.30;16.42;;;;;;;11.81;83.00;100907.63;4993069;28;20073;-43
2023/05/23 08:09:46;;;;;;;70.38;17.40;;;;;;;11.84;82.87;100909.94;4993664;28;20443;-45
2023/05/23 08:12:13;;;;;;;77.68;17.67;;;;;;;11.76;82.96;100916.31;4993102;28;20029;-47
2023/05/23 08:14:39;;;;;;;56.72;16.13;;;;;;;11.75;83.04;100919.22;4997488;28;20026;-46
2023/05/23 08:17:05;;;;;;;72.15;17.02;;;;;;;11.88;82.34;100919.19;4992900;28;20026;-45
2023/05/23 08:19:32;;;;;;;62.13;17.25;;;;;;;11.84;82.66;100905.41;4992682;28;20387;-45
2023/05/23 08:21:58;;;;;;;76.63;18.95;;;;;;;11.73;83.15;100908.72;5018134;23;20054;-44
2023/05/23 08:24:24;;;;;;;76.78;18.20;;;;;;;11.79;83.03;100917.75;5011930;28;20092;-45
2023/05/23 08:26:50;;;;;;;69.63;18.27;;;;;;;11.72;83.29;100922.34;5012343;28;20026;-47
2023/05/23 08:29:17;;;;;;;58.35;16.05;;;;;;;11.80;82.90;100922.09;5012476;28;20026;-46
2023/05/23 08:31:43;;;;;;;69.30;17.85;;;;;;;11.74;83.06;100915.72;5012407;28;20030;-44
2023/05/23 08:34:10;;;;;;;61.28;16.05;;;;;;;11.86;82.54;100915.91;4975435;28;20089;-47
2023/05/23 08:36:38;;;;;;;77.55;18.52;;;;;;;11.86;82.51;100910.53;4987546;28;20026;-45
2023/05/23 08:39:05;;;;;;;59.80;16.70;;;;;;;11.89;82.54;100910.94;4992127;28;20037;-47
2023/05/23 08:41:31;;;;;;;62.03;16.20;;;;;;;11.91;82.52;100901.88;4992763;28;20030;-45
2023/05/23 08:43:57;;;;;;;61.67;17.13;;;;;;;11.99;81.96;100906.97;4992712;28;20026;-45
2023/05/23 08:46:24;;;;;;;65.82;17.15;;;;;;;12.01;81.80;100904.91;5001291;28;20041;-47
2023/05/23 08:48:53;;;;;;;60.47;15.80;;;;;;;12.05;81.58;100908.81;5012339;28;20044;-43
2023/05/23 08:51:22;;;;;;;73.03;17.55;;;;;;;11.99;81.74;100904.28;5001177;28;20041;-48
2023/05/23 08:53:49;;;;;;;62.17;16.15;;;;;;;12.03;81.63;100895.59;4992477;28;20026;-46
2023/05/23 08:56:16;;;;;;;71.07;17.60;;;;;;;12.01;81.85;100900.38;4992571;28;20101;-48
2023/05/23 08:58:42;;;;;;;66.28;17.10;;;;;;;12.13;81.25;100895.16;4990629;28;20026;-45
2023/05/23 09:01:10;;;;;;;70.10;16.55;;;;;;;12.11;81.33;100895.38;4992184;28;20061;-45
2023/05/23 09:03:37;;;;;;;68.05;16.27;;;;;;;12.11;81.32;100897.22;4990987;28;20368;-47
2023/05/23 09:06:06;;;;;;;64.53;15.80;;;;;;;12.12;80.80;100894.31;4992514;28;20060;-46
2023/05/23 09:08:36;;;;;;;73.97;17.02;;;;;;;12.10;81.14;100888.38;4992126;28;20053;-45
2023/05/23 09:11:04;;;;;;;66.47;17.17;;;;;;;12.09;81.11;100888.56;4992270;28;20089;-45
2023/05/23 09:13:33;;;;;;;68.97;16.33;;;;;;;12.20;80.71;100890.56;4991793;28;20467;-46
2023/05/23 09:15:59;;;;;;;62.70;15.38;;;;;;;12.26;79.97;100895.06;4992254;28;20026;-44
2023/05/23 09:18:26;;;;;;;72.88;16.88;;;;;;;12.14;80.87;100894.94;4992092;28;20041;-43
2023/05/23 09:20:52;;;;;;;73.60;16.30;;;;;;;12.17;80.73;100890.19;4992067;28;20042;-44
2023/05/23 09:23:19;;;;;;;65.95;17.08;;;;;;;12.17;79.96;100891.00;4992135;28;20503;-45
2023/05/23 09:25:47;;;;;;;54.88;15.80;;;;;;;12.04;80.36;100897.25;4992333;28;20482;-44
2023/05/23 09:28:13;;;;;;;57.97;15.35;;;;;;;12.12;79.67;100890.81;4991265;28;20038;-45
2023/05/23 09:30:39;;;;;;;69.05;15.75;;;;;;;12.07;79.82;100886.09;4992381;28;20037;-45
2023/05/23 09:33:05;;;;;;;69.68;16.40;;;;;;;11.92;80.64;100876.69;4982028;28;20030;-44
2023/05/23 09:35:32;;;;;;;63.50;16.35;;;;;;;12.02;80.73;100871.69;4985689;28;20062;-45
2023/05/23 09:37:58;;;;;;;64.25;15.35;;;;;;;12.09;80.59;100877.81;4991732;28;20406;-47
2023/05/23 09:40:30;;;;;;;59.85;16.23;;;;;;;11.98;80.90;100873.13;4992210;28;20415;-47
2023/05/23 09:43:06;;;;;;;65.13;17.23;;;;;;;11.89;81.46;100873.41;4991994;28;20392;-44
2023/05/23 09:45:33;;;;;;;69.30;17.45;;;;;;;11.94;81.30;100872.75;4992502;28;20092;-46
2023/05/23 09:48:00;;;;;;;73.20;16.95;;;;;;;11.95;81.39;100877.09;4991815;28;20498;-44
2023/05/23 09:50:34;;;;;;;70.75;17.13;;;;;;;11.81;82.11;100876.31;4992110;28;20041;-44
2023/05/23 09:53:01;;;;;;;66.77;16.73;;;;;;;11.92;81.63;100880.19;4989614;28;20076;-44
2023/05/23 09:55:27;;;;;;;61.35;16.38;;;;;;;11.80;82.14;100885.38;4992024;28;20031;-47
2023/05/23 09:57:57;;;;;;;62.72;15.95;;;;;;;11.71;82.94;100880.44;4991652;28;20054;-46
2023/05/23 10:00:27;;;;;;;66.97;17.25;;;;;;;11.80;82.58;100888.03;4991790;28;20139;-44
2023/05/23 10:03:13;;;;;;;58.60;16.33;;;;;;;11.79;82.29;100881.03;4995945;28;20092;-45
2023/05/23 10:05:45;;;;;;;71.00;16.67;;;;;;;11.75;82.81;100877.13;4996058;28;20069;-47
2023/05/23 10:08:17;;;;;;;73.47;16.63;;;;;;;11.72;83.42;100864.16;4995335;28;20030;-46
2023/05/23 10:10:55;;;;;;;58.28;17.33;;;;;;;11.72;83.30;100866.84;4995910;28;20033;-44
2023/05/23 10:13:28;;;;;;;73.78;16.17;;;;;;;11.73;83.09;100871.16;4993080;28;20037;-44
2023/05/23 10:16:01;;;;;;;56.40;15.85;;;;;;;11.68;83.48;100865.63;4995781;28;20058;-45
2023/05/23 10:18:39;;;;;;;74.50;18.23;;;;;;;11.70;83.41;100865.41;4994569;28;20019;-44
2023/05/23 10:21:11;;;;;;;74.13;16.83;;;;;;;11.69;83.40;100871.81;4986732;28;20077;-44
2023/05/23 10:23:38;;;;;;;66.70;17.02;;;;;;;11.60;83.78;100864.00;4992575;28;20058;-44
2023/05/23 10:26:05;;;;;;;64.40;16.95;;;;;;;11.59;84.16;100864.19;4995225;28;20387;-47
2023/05/23 10:28:32;;;;;;;69.88;16.65;;;;;;;11.63;84.01;100863.56;4995072;28;20035;-47
2023/05/23 10:30:59;;;;;;;68.00;16.38;;;;;;;11.59;84.50;100866.88;4995679;28;20072;-45
2023/05/23 10:33:29;;;;;;;71.45;18.67;;;;;;;11.61;84.28;100872.88;4982038;28;20054;-44
2023/05/23 10:36:25;;;;;;;66.28;16.50;;;;;;;11.67;84.27;100868.53;4975865;28;20065;-44
2023/05/23 10:39:01;;;;;;;64.55;16.83;;;;;;;11.69;83.65;100866.44;4983065;28;20129;-44
2023/05/23 10:41:50;;;;;;;63.72;16.50;;;;;;;11.77;83.27;100875.09;4995014;28;20033;-44
2023/05/23 10:44:24;;;;;;;67.05;16.77;;;;;;;11.80;82.92;100882.69;4994955;28;20375;-46
2023/05/23 10:46:54;;;;;;;62.65;16.67;;;;;;;11.85;82.70;100876.72;4994762;28;20020;-48
2023/05/23 10:49:41;;;;;;;69.05;18.58;;;;;;;11.72;83.62;100885.63;4995078;28;20495;-45
2023/05/23 10:52:09;;;;;;;64.65;16.98;;;;;;;11.67;83.45;100882.75;4994707;28;20038;-46
2023/05/23 10:54:41;;;;;;;59.50;15.75;;;;;;;11.72;83.07;100877.56;4994557;28;20026;-44
2023/05/23 10:57:10;;;;;;;62.53;15.52;;;;;;;11.78;82.55;100881.25;4994636;28;20032;-45
2023/05/23 10:59:38;;;;;;;71.05;16.05;;;;;;;11.68;83.01;100887.06;4994854;28;20065;-46
2023/05/23 11:02:14;;;;;;;70.43;16.35;;;;;;;11.81;82.50;100886.19;4994555;28;20513;-43
2023/05/23 11:04:41;;;;;;;60.78;15.75;;;;;;;11.73;82.76;100887.25;4994667;28;20041;-44
2023/05/23 11:07:40;;;;;;;51.50;15.25;;;;;;;11.65;83.25;100892.84;4994552;28;20054;-44
2023/05/23 11:10:10;;;;;;;70.93;17.23;;;;;;;11.59;83.52;100883.78;4941391;28;20501;-46
2023/05/23 11:12:41;;;;;;;68.40;17.40;;;;;;;11.50;84.05;100889.63;4993572;28;20110;-44